Time;durP1;ratioP1;P1;durP2;ratioP2;P2;SDS_P1;SDS_P2;PMS_P1;PMS_P2;Temp;Humidity;BMP_temperature;BMP_pressure;BME280_temperature;BME280_humidity;BME280_pressure;Samples;Min_cycle;Max_cycle;Signal;HPM_P1;HPM_P2
2024/02/07 00:00:39;;;;;;;3.60;2.23;;;4.60;99.90;;;;;;2059822;28;20712;-68
2024/02/07 00:01:40;;;;;;;4.27;2.30;;;4.60;99.90;;;;;;2054164;28;20231;-68
2024/02/07 00:02:41;;;;;;;3.97;2.20;;;4.70;99.90;;;;;;2039184;28;20271;-69
2024/02/07 00:03:43;;;;;;;4.70;2.07;;;4.60;99.90;;;;;;2054510;28;20231;-68
2024/02/07 00:04:43;;;;;;;6.63;2.70;;;4.70;99.90;;;;;;2053616;28;20223;-68
2024/02/07 00:05:44;;;;;;;3.50;2.00;;;4.70;99.90;;;;;;2042654;28;20699;-68
2024/02/07 00:06:45;;;;;;;5.57;2.53;;;4.70;99.90;;;;;;2044809;29;20307;-68
2024/02/07 00:07:45;;;;;;;2.73;2.00;;;4.80;99.90;;;;;;2061659;28;20296;-68
2024/02/07 00:08:46;;;;;;;3.30;1.60;;;4.80;99.90;;;;;;2064098;28;20262;-68
2024/02/07 00:09:47;;;;;;;5.37;2.43;;;4.80;99.90;;;;;;2063807;28;20566;-68
2024/02/07 00:10:47;;;;;;;3.83;1.73;;;4.80;99.90;;;;;;2060619;28;20221;-68
2024/02/07 00:11:48;;;;;;;3.37;1.93;;;4.80;99.90;;;;;;2060663;28;20230;-69
2024/02/07 00:12:49;;;;;;;2.67;1.63;;;4.70;99.90;;;;;;2061537;28;20218;-68
2024/02/07 00:13:49;;;;;;;2.80;2.27;;;4.70;99.90;;;;;;2054996;28;20610;-68
2024/02/07 00:14:50;;;;;;;2.13;1.93;;;4.60;99.90;;;;;;2046928;28;20260;-67
2024/02/07 00:15:51;;;;;;;4.83;2.53;;;4.70;99.90;;;;;;2054793;28;20309;-67
2024/02/07 00:16:51;;;;;;;5.60;2.50;;;4.60;99.90;;;;;;2061155;28;20656;-67
2024/02/07 00:17:53;;;;;;;4.17;2.37;;;4.60;99.90;;;;;;2061159;28;20306;-67
2024/02/07 00:18:53;;;;;;;3.63;2.28;;;4.60;99.90;;;;;;2054974;28;20233;-67
2024/02/07 00:19:54;;;;;;;3.07;2.07;;;4.60;99.90;;;;;;2047127;28;20306;-67
2024/02/07 00:20:55;;;;;;;3.67;2.17;;;4.50;99.90;;;;;;2043545;29;20692;-68
2024/02/07 00:21:55;;;;;;;3.50;2.13;;;4.60;99.90;;;;;;2057235;28;20246;-69
2024/02/07 00:22:56;;;;;;;5.03;2.23;;;4.50;99.90;;;;;;2063887;28;20234;-67
2024/02/07 00:23:57;;;;;;;5.43;2.13;;;4.50;99.90;;;;;;2064367;28;20678;-66
2024/02/07 00:24:58;;;;;;;2.90;2.37;;;4.60;99.90;;;;;;2059906;28;20271;-66
2024/02/07 00:25:59;;;;;;;5.57;2.13;;;4.60;99.90;;;;;;2060176;28;20697;-70
2024/02/07 00:27:00;;;;;;;2.90;2.13;;;4.70;99.90;;;;;;2063036;28;20222;-66
2024/02/07 00:28:00;;;;;;;5.20;2.33;;;4.60;99.90;;;;;;2048123;28;20897;-68
2024/02/07 00:29:01;;;;;;;3.60;2.13;;;4.60;99.90;;;;;;2059776;28;20496;-67
2024/02/07 00:30:03;;;;;;;3.70;2.03;;;4.60;99.90;;;;;;2062358;28;20190;-66
2024/02/07 00:31:05;;;;;;;3.40;2.20;;;4.70;99.90;;;;;;2054522;28;20179;-68
2024/02/07 00:32:06;;;;;;;2.78;1.90;;;4.70;99.90;;;;;;2062891;28;20714;-67
2024/02/07 00:33:07;;;;;;;5.28;2.40;;;4.70;99.90;;;;;;2061051;28;20191;-67
2024/02/07 00:34:07;;;;;;;3.27;2.10;;;4.70;99.90;;;;;;2054514;28;20676;-68
2024/02/07 00:35:08;;;;;;;6.47;2.00;;;4.70;99.90;;;;;;2063849;28;20207;-67
2024/02/07 00:36:09;;;;;;;5.30;2.53;;;4.80;99.90;;;;;;2063464;28;20681;-67
2024/02/07 00:37:10;;;;;;;7.00;2.43;;;4.90;99.90;;;;;;2054870;28;20187;-68
2024/02/07 00:38:10;;;;;;;4.17;2.20;;;5.00;99.90;;;;;;2046851;28;20187;-68
2024/02/07 00:39:11;;;;;;;8.20;2.50;;;5.00;99.90;;;;;;2054754;28;20224;-68
2024/02/07 00:40:13;;;;;;;4.17;2.10;;;5.00;99.90;;;;;;2060863;28;20187;-68
2024/02/07 00:41:25;;;;;;;4.28;2.08;;;5.10;99.90;;;;;;2062663;28;20179;-67
2024/02/07 00:42:26;;;;;;;4.15;2.28;;;5.10;99.90;;;;;;2063322;28;20234;-68
2024/02/07 00:43:26;;;;;;;4.20;2.57;;;5.10;99.90;;;;;;2059666;28;20226;-68
2024/02/07 00:44:27;;;;;;;3.20;2.30;;;5.10;99.90;;;;;;2060268;28;20301;-68
2024/02/07 00:45:32;;;;;;;5.30;3.03;;;5.20;99.90;;;;;;2053058;28;20318;-68
2024/02/07 00:46:33;;;;;;;4.55;2.20;;;5.20;99.90;;;;;;2051213;28;20242;-68
2024/02/07 00:47:33;;;;;;;4.33;2.20;;;5.20;99.90;;;;;;2055098;28;20234;-68
2024/02/07 00:48:34;;;;;;;3.67;2.43;;;5.20;99.90;;;;;;2063017;28;20308;-68
2024/02/07 00:49:35;;;;;;;3.73;2.30;;;5.20;99.90;;;;;;2062894;28;20238;-68
2024/02/07 00:50:35;;;;;;;6.03;2.07;;;5.30;99.90;;;;;;2062986;28;20722;-68
2024/02/07 00:51:36;;;;;;;8.53;2.57;;;5.30;99.90;;;;;;2058427;28;20279;-68
2024/02/07 00:52:37;;;;;;;2.97;1.87;;;5.40;99.90;;;;;;2050465;28;20262;-68
2024/02/07 00:53:38;;;;;;;3.77;1.90;;;5.30;99.90;;;;;;2058949;28;20479;-68
2024/02/07 00:54:38;;;;;;;5.10;2.10;;;5.40;99.90;;;;;;2061229;28;20702;-68
2024/02/07 00:55:39;;;;;;;2.83;2.10;;;5.50;99.90;;;;;;2061272;28;20234;-68
2024/02/07 00:56:40;;;;;;;5.50;2.50;;;5.50;99.90;;;;;;2055225;28;20345;-68
2024/02/07 00:57:41;;;;;;;4.57;2.20;;;5.50;99.90;;;;;;2051965;28;20254;-69
2024/02/07 00:58:41;;;;;;;3.57;2.13;;;5.40;99.90;;;;;;2061895;28;20269;-68
2024/02/07 00:59:42;;;;;;;3.30;2.23;;;5.40;99.90;;;;;;2060177;28;20648;-67
2024/02/07 01:00:43;;;;;;;3.67;2.43;;;5.40;99.90;;;;;;2057196;28;20293;-67
2024/02/07 01:01:43;;;;;;;4.47;2.30;;;5.50;99.90;;;;;;2062514;28;20247;-67
2024/02/07 01:02:45;;;;;;;4.90;1.97;;;5.40;99.90;;;;;;2054590;28;20235;-67
2024/02/07 01:03:45;;;;;;;3.97;2.28;;;5.40;99.90;;;;;;2038834;28;20275;-68
2024/02/07 01:04:47;;;;;;;5.47;2.27;;;5.40;99.90;;;;;;2046448;28;20274;-69
2024/02/07 01:05:48;;;;;;;4.00;2.15;;;5.40;99.90;;;;;;2055386;28;20229;-68
2024/02/07 01:06:48;;;;;;;4.50;2.60;;;5.40;99.90;;;;;;2061548;28;20222;-67
2024/02/07 01:07:49;;;;;;;2.80;1.90;;;5.40;99.90;;;;;;2069752;28;20269;-67
2024/02/07 01:08:50;;;;;;;3.63;2.00;;;5.40;99.90;;;;;;2055223;28;20219;-68
2024/02/07 01:09:50;;;;;;;4.50;2.07;;;5.40;99.90;;;;;;2054842;28;20245;-67
2024/02/07 01:10:51;;;;;;;3.70;2.13;;;5.40;99.90;;;;;;2059781;28;20361;-68
2024/02/07 01:11:52;;;;;;;5.03;2.20;;;5.40;99.90;;;;;;2061179;28;20237;-68
2024/02/07 01:12:52;;;;;;;6.63;2.10;;;5.40;99.90;;;;;;2063115;28;20229;-68
2024/02/07 01:13:53;;;;;;;4.50;2.40;;;5.40;99.90;;;;;;2062903;28;20226;-68
2024/02/07 01:14:54;;;;;;;3.67;2.40;;;5.40;99.90;;;;;;2059555;28;20219;-69
2024/02/07 01:15:54;;;;;;;3.57;2.40;;;5.40;99.90;;;;;;2059798;28;20223;-67
2024/02/07 01:16:55;;;;;;;3.73;2.47;;;5.40;99.90;;;;;;2059876;28;20233;-68
2024/02/07 01:17:56;;;;;;;3.63;2.40;;;5.30;99.90;;;;;;2062900;28;20841;-68
2024/02/07 01:18:56;;;;;;;4.77;2.40;;;5.40;99.90;;;;;;2053231;28;20265;-68
2024/02/07 01:19:57;;;;;;;4.20;2.17;;;5.40;99.90;;;;;;2050967;28;20238;-68
2024/02/07 01:20:58;;;;;;;2.73;2.10;;;5.40;99.90;;;;;;2056264;28;20766;-68
2024/02/07 01:21:58;;;;;;;5.50;2.27;;;5.40;99.90;;;;;;2060534;28;20222;-68
2024/02/07 01:22:59;;;;;;;6.60;3.00;;;5.40;99.90;;;;;;2060722;28;20249;-68
2024/02/07 01:24:00;;;;;;;9.30;3.07;;;5.50;99.90;;;;;;2063413;28;20595;-68
2024/02/07 01:25:01;;;;;;;7.77;2.37;;;5.50;99.90;;;;;;2061410;28;20194;-67
2024/02/07 01:26:01;;;;;;;4.63;2.23;;;5.40;99.90;;;;;;2058790;28;20195;-68
2024/02/07 01:27:04;;;;;;;6.30;3.00;;;5.40;99.90;;;;;;2061677;28;20277;-68
2024/02/07 01:28:05;;;;;;;7.95;2.75;;;5.40;99.90;;;;;;2054446;28;20213;-68
2024/02/07 01:29:05;;;;;;;3.03;2.13;;;5.50;99.90;;;;;;2059551;28;20228;-68
2024/02/07 01:30:12;;;;;;;5.70;2.47;;;5.60;99.90;;;;;;2062236;28;20190;-68
2024/02/07 01:31:13;;;;;;;5.00;2.85;;;5.60;99.90;;;;;;2061751;28;20188;-68
2024/02/07 01:32:14;;;;;;;6.27;2.10;;;5.60;99.90;;;;;;2054530;28;20694;-68
2024/02/07 01:33:16;;;;;;;4.83;2.10;;;5.70;99.90;;;;;;2059748;28;20183;-69
2024/02/07 01:34:18;;;;;;;3.72;1.83;;;5.70;99.90;;;;;;2061393;28;20184;-68
2024/02/07 01:35:19;;;;;;;3.17;2.60;;;5.70;99.90;;;;;;2054682;28;20699;-68
2024/02/07 01:36:22;;;;;;;4.37;2.40;;;5.70;99.90;;;;;;2058851;28;20293;-68
2024/02/07 01:37:23;;;;;;;4.15;2.20;;;5.70;99.90;;;;;;2060179;28;20647;-67
2024/02/07 01:38:24;;;;;;;4.47;2.00;;;5.70;99.90;;;;;;2059732;28;20269;-67
2024/02/07 01:39:24;;;;;;;2.87;1.87;;;5.70;99.90;;;;;;2044184;29;20336;-69
2024/02/07 01:40:25;;;;;;;7.27;2.40;;;5.70;99.90;;;;;;2045556;28;20291;-68
2024/02/07 01:41:27;;;;;;;3.60;2.27;;;5.70;99.90;;;;;;2058517;28;20241;-69
2024/02/07 01:42:31;;;;;;;5.18;2.25;;;5.70;99.90;;;;;;2061689;28;20261;-68
2024/02/07 01:43:35;;;;;;;4.43;2.10;;;5.70;99.90;;;;;;2060193;28;20234;-69
2024/02/07 01:44:37;;;;;;;5.63;2.22;;;5.80;99.90;;;;;;2068348;28;20225;-68
2024/02/07 01:45:39;;;;;;;3.45;2.10;;;5.80;99.90;;;;;;2069132;28;20816;-68
2024/02/07 01:46:40;;;;;;;6.63;2.50;;;5.90;99.90;;;;;;2046424;28;20240;-68
2024/02/07 01:47:41;;;;;;;3.47;2.40;;;5.90;99.90;;;;;;2050569;28;20239;-68
2024/02/07 01:48:43;;;;;;;4.90;2.35;;;5.90;99.90;;;;;;2051463;28;20231;-68
2024/02/07 01:49:48;;;;;;;3.30;1.95;;;6.00;99.90;;;;;;2053747;28;20230;-69
2024/02/07 01:50:50;;;;;;;4.88;1.92;;;6.00;99.90;;;;;;2054278;28;20767;-68
2024/02/07 01:51:51;;;;;;;3.20;1.90;;;5.90;99.90;;;;;;2053876;28;20226;-68
2024/02/07 01:52:58;;;;;;;3.97;2.23;;;5.80;99.90;;;;;;2050839;28;20285;-68
2024/02/07 01:53:58;;;;;;;2.80;2.03;;;5.70;99.90;;;;;;2047031;28;20639;-68
2024/02/07 01:54:59;;;;;;;6.80;3.33;;;5.60;99.90;;;;;;2054240;28;20227;-68
2024/02/07 01:56:02;;;;;;;4.87;2.90;;;5.60;99.90;;;;;;2063088;28;20253;-68
2024/02/07 01:57:03;;;;;;;5.35;2.65;;;5.60;99.90;;;;;;2050432;28;20576;-68
2024/02/07 01:58:04;;;;;;;5.15;2.20;;;5.50;99.90;;;;;;2059224;28;20194;-67
2024/02/07 01:59:06;;;;;;;6.82;3.70;;;5.40;99.90;;;;;;2062818;28;20187;-67
2024/02/07 02:00:08;;;;;;;10.15;3.90;;;5.40;99.90;;;;;;2055139;28;20187;-68
2024/02/07 02:01:09;;;;;;;7.85;3.65;;;5.30;99.90;;;;;;2058982;28;20184;-68
2024/02/07 02:02:09;;;;;;;4.00;2.30;;;5.30;99.90;;;;;;2061287;28;20280;-68
2024/02/07 02:03:13;;;;;;;4.27;2.00;;;5.20;99.90;;;;;;2059711;28;20249;-68
2024/02/07 02:04:13;;;;;;;6.97;2.33;;;5.20;99.90;;;;;;2052670;28;20176;-67
2024/02/07 02:05:14;;;;;;;5.57;2.10;;;5.10;99.90;;;;;;2051110;28;20176;-68
2024/02/07 02:06:15;;;;;;;5.53;2.40;;;5.10;99.90;;;;;;2051616;28;20202;-69
2024/02/07 02:07:17;;;;;;;6.40;2.60;;;5.10;99.90;;;;;;2051085;28;20199;-68
2024/02/07 02:08:17;;;;;;;8.38;3.17;;;5.00;99.90;;;;;;2051955;28;20560;-68
2024/02/07 02:09:19;;;;;;;6.10;2.83;;;5.00;99.90;;;;;;2051536;28;20215;-68
2024/02/07 02:10:20;;;;;;;6.32;3.05;;;5.10;99.90;;;;;;2050888;28;20179;-68
2024/02/07 02:11:33;;;;;;;2.88;1.90;;;5.10;99.90;;;;;;2047892;28;20219;-68
2024/02/07 02:12:35;;;;;;;5.78;2.28;;;5.10;99.90;;;;;;2047842;28;20222;-68
2024/02/07 02:13:36;;;;;;;3.67;2.00;;;5.10;99.90;;;;;;2060173;28;20225;-68
2024/02/07 02:14:37;;;;;;;4.07;2.30;;;5.10;99.90;;;;;;2051125;28;20289;-68
2024/02/07 02:15:38;;;;;;;5.80;2.30;;;5.20;99.90;;;;;;2041068;29;20291;-68
2024/02/07 02:16:39;;;;;;;4.93;2.80;;;5.20;99.90;;;;;;2038349;29;20247;-68
2024/02/07 02:17:40;;;;;;;4.10;2.07;;;5.20;99.90;;;;;;2059646;28;20229;-68
2024/02/07 02:18:41;;;;;;;2.00;1.80;;;5.20;99.90;;;;;;2052197;28;20326;-68
2024/02/07 02:19:43;;;;;;;3.28;2.17;;;5.20;99.90;;;;;;2053372;28;20266;-68
2024/02/07 02:20:44;;;;;;;2.63;2.00;;;5.20;99.90;;;;;;2054321;28;20718;-67
2024/02/07 02:22:17;;;;;;;3.33;2.47;;;5.20;99.90;;;;;;2060949;28;20280;-67
2024/02/07 02:24:02;;;;;;;5.65;1.98;;;5.20;99.90;;;;;;2062321;28;20746;-68
2024/02/07 02:25:38;;;;;;;3.75;1.88;;;5.10;99.90;;;;;;2047426;28;20730;-67
2024/02/07 02:27:53;;;;;;;3.95;2.10;;;5.10;99.90;;;;;;2057648;28;20230;-68
2024/02/07 02:29:25;;;;;;;3.95;1.60;;;5.20;99.90;;;;;;2031352;29;20387;-68
2024/02/07 02:30:47;;;;;;;2.47;1.70;;;5.20;99.90;;;;;;2043874;28;20729;-69
2024/02/07 02:31:56;;;;;;;2.25;1.65;;;5.30;99.90;;;;;;2045565;28;20218;-68
2024/02/07 02:32:57;;;;;;;6.53;1.83;;;5.30;99.90;;;;;;2048367;28;20224;-68
2024/02/07 02:33:59;;;;;;;3.22;1.65;;;5.40;99.90;;;;;;2045113;28;20223;-68
2024/02/07 02:35:00;;;;;;;3.05;1.92;;;5.40;99.90;;;;;;2049773;28;20225;-67
2024/02/07 02:36:05;;;;;;;2.03;1.40;;;5.50;99.90;;;;;;2059751;28;20222;-68
2024/02/07 02:37:06;;;;;;;3.75;1.70;;;5.50;99.90;;;;;;2060433;28;20724;-68
2024/02/07 02:38:07;;;;;;;2.50;1.50;;;5.60;99.90;;;;;;2058296;28;20245;-69
2024/02/07 02:39:08;;;;;;;3.00;1.53;;;5.50;99.90;;;;;;2053397;28;20187;-69
2024/02/07 02:40:09;;;;;;;5.10;1.90;;;5.50;99.90;;;;;;2054197;28;20716;-68
2024/02/07 02:41:10;;;;;;;3.10;1.70;;;5.50;99.90;;;;;;2053834;28;20214;-67
2024/02/07 02:42:11;;;;;;;4.93;1.93;;;5.50;99.90;;;;;;2056900;28;20210;-68
2024/02/07 02:43:12;;;;;;;5.72;2.13;;;5.40;99.90;;;;;;2060366;28;20197;-67
2024/02/07 02:44:13;;;;;;;4.28;1.60;;;5.40;99.90;;;;;;2060264;28;20209;-68
2024/02/07 02:45:14;;;;;;;5.17;1.87;;;5.40;99.90;;;;;;2060448;28;20844;-68
2024/02/07 02:46:14;;;;;;;3.90;2.00;;;5.40;99.90;;;;;;2061342;28;20215;-68
2024/02/07 02:47:15;;;;;;;4.30;2.07;;;5.30;99.90;;;;;;2044691;28;20172;-68
2024/02/07 02:48:16;;;;;;;3.50;1.60;;;5.30;99.90;;;;;;2047522;28;20763;-69
2024/02/07 02:49:17;;;;;;;3.22;2.15;;;5.30;99.90;;;;;;2059765;28;20237;-68
2024/02/07 02:50:20;;;;;;;6.77;1.97;;;5.30;99.90;;;;;;2060789;28;20182;-68
2024/02/07 02:51:22;;;;;;;6.70;2.17;;;5.20;99.90;;;;;;2061020;28;20286;-67
2024/02/07 02:52:22;;;;;;;3.33;1.90;;;5.20;99.90;;;;;;2061514;28;20325;-68
2024/02/07 02:53:23;;;;;;;4.30;2.00;;;5.20;99.90;;;;;;2052807;28;20231;-68
2024/02/07 02:54:24;;;;;;;3.23;2.30;;;5.20;99.90;;;;;;2056015;28;20271;-68
2024/02/07 02:55:28;;;;;;;4.40;1.97;;;5.20;99.90;;;;;;2061937;28;20230;-68
2024/02/07 02:56:31;;;;;;;5.15;2.58;;;5.20;99.90;;;;;;2061825;28;20793;-67
2024/02/07 02:57:32;;;;;;;3.85;1.95;;;5.10;99.90;;;;;;2061015;28;20726;-67
2024/02/07 02:58:34;;;;;;;2.72;1.83;;;5.20;99.90;;;;;;2059125;28;20253;-67
2024/02/07 02:59:35;;;;;;;3.05;2.03;;;5.20;99.90;;;;;;2066508;28;20225;-67
2024/02/07 03:00:36;;;;;;;3.25;2.00;;;5.20;99.90;;;;;;2061015;28;20257;-68
2024/02/07 03:01:38;;;;;;;4.10;2.17;;;5.20;99.90;;;;;;2049613;28;20219;-67
2024/02/07 03:02:40;;;;;;;4.05;2.40;;;5.10;99.90;;;;;;2057620;28;20329;-68
2024/02/07 03:03:53;;;;;;;3.95;2.40;;;5.10;99.90;;;;;;2056657;28;20272;-67
2024/02/07 03:04:54;;;;;;;3.58;2.20;;;5.10;99.90;;;;;;2058644;28;20226;-67
2024/02/07 03:05:58;;;;;;;4.60;2.20;;;5.10;99.90;;;;;;2061994;28;20218;-68
2024/02/07 03:07:03;;;;;;;3.53;2.40;;;5.10;99.90;;;;;;2051406;28;20226;-67
2024/02/07 03:08:05;;;;;;;2.78;1.85;;;5.10;99.90;;;;;;2056832;28;20294;-70
2024/02/07 03:09:07;;;;;;;4.65;2.00;;;5.20;99.90;;;;;;2060573;28;20654;-67
2024/02/07 03:10:08;;;;;;;2.55;2.15;;;5.20;99.90;;;;;;2051800;28;20209;-68
2024/02/07 03:11:12;;;;;;;4.37;1.90;;;5.20;99.90;;;;;;2056129;28;20607;-67
2024/02/07 03:12:13;;;;;;;4.68;2.22;;;5.20;99.90;;;;;;2059872;28;20179;-68
2024/02/07 03:13:13;;;;;;;3.77;2.13;;;5.10;99.90;;;;;;2058625;28;20641;-68
2024/02/07 03:14:14;;;;;;;4.20;1.90;;;5.10;99.90;;;;;;2058477;28;20183;-68
2024/02/07 03:15:15;;;;;;;5.40;2.33;;;5.00;99.90;;;;;;2060460;28;20245;-68
2024/02/07 03:16:16;;;;;;;4.17;2.33;;;5.00;99.90;;;;;;2058715;28;20280;-68
2024/02/07 03:17:16;;;;;;;3.93;2.10;;;5.00;99.90;;;;;;2060474;28;20189;-68
2024/02/07 03:18:17;;;;;;;4.07;2.10;;;5.00;99.90;;;;;;2061412;28;20178;-68
2024/02/07 03:19:18;;;;;;;3.27;2.03;;;4.90;99.90;;;;;;2060335;28;20178;-68
2024/02/07 03:20:18;;;;;;;6.83;1.80;;;4.80;99.90;;;;;;2060695;28;20262;-69
2024/02/07 03:21:19;;;;;;;4.87;2.30;;;4.80;99.90;;;;;;2060584;28;20182;-68
2024/02/07 03:22:19;;;;;;;3.30;1.80;;;4.80;99.90;;;;;;2058914;28;20765;-68
2024/02/07 03:23:20;;;;;;;6.13;2.10;;;4.80;99.90;;;;;;2060345;28;20542;-68
2024/02/07 03:24:21;;;;;;;5.13;2.40;;;4.90;99.90;;;;;;2060001;28;20473;-67
2024/02/07 03:25:22;;;;;;;3.03;2.30;;;4.90;99.90;;;;;;2057127;28;20289;-68
2024/02/07 03:26:23;;;;;;;2.80;1.97;;;4.90;99.90;;;;;;2061065;28;20325;-69
2024/02/07 03:27:23;;;;;;;5.18;1.95;;;4.90;99.90;;;;;;2061195;28;20226;-67
2024/02/07 03:28:25;;;;;;;3.30;1.70;;;4.90;99.90;;;;;;2059955;28;20233;-68
2024/02/07 03:29:27;;;;;;;4.55;2.33;;;4.90;99.90;;;;;;2061263;28;20714;-67
2024/02/07 03:30:28;;;;;;;4.25;1.83;;;4.90;99.90;;;;;;2065277;28;20245;-68
2024/02/07 03:31:31;;;;;;;4.68;2.70;;;5.00;99.90;;;;;;2057807;28;20281;-68
2024/02/07 03:32:33;;;;;;;3.78;1.90;;;5.00;99.90;;;;;;2052088;28;20277;-68
2024/02/07 03:33:33;;;;;;;3.50;2.10;;;5.00;99.90;;;;;;2050929;28;20615;-68
2024/02/07 03:34:36;;;;;;;3.40;2.00;;;5.00;99.90;;;;;;2059181;28;20232;-68
2024/02/07 03:35:37;;;;;;;5.00;2.58;;;5.10;99.90;;;;;;2057159;28;20268;-68
2024/02/07 03:36:38;;;;;;;1.93;1.70;;;5.10;99.90;;;;;;2057348;28;20602;-68
2024/02/07 03:37:38;;;;;;;4.80;2.20;;;5.00;99.90;;;;;;2059099;28;20315;-68
2024/02/07 03:38:40;;;;;;;4.33;1.87;;;5.10;99.90;;;;;;2061690;28;20234;-67
2024/02/07 03:39:41;;;;;;;4.38;2.00;;;5.00;99.90;;;;;;2057347;28;20289;-68
2024/02/07 03:40:42;;;;;;;4.90;2.45;;;5.10;99.90;;;;;;2049279;28;20250;-68
2024/02/07 03:41:43;;;;;;;2.63;1.98;;;5.10;99.90;;;;;;2050051;28;20227;-68
2024/02/07 03:42:44;;;;;;;2.83;2.17;;;5.10;99.90;;;;;;2056652;28;20328;-68
2024/02/07 03:43:45;;;;;;;4.05;2.17;;;5.10;99.90;;;;;;2052757;28;20238;-67
2024/02/07 03:44:58;;;;;;;4.13;1.63;;;5.20;99.90;;;;;;2045733;28;20231;-68
2024/02/07 03:46:00;;;;;;;4.10;2.20;;;5.20;99.90;;;;;;2056146;28;20226;-68
2024/02/07 03:47:01;;;;;;;3.13;1.98;;;5.10;99.90;;;;;;2049998;28;20231;-68
2024/02/07 03:48:04;;;;;;;9.63;2.47;;;5.10;99.90;;;;;;2052796;28;20199;-68
2024/02/07 03:49:06;;;;;;;2.70;1.83;;;5.10;99.90;;;;;;2060654;28;20187;-68
2024/02/07 03:50:10;;;;;;;3.42;2.03;;;5.10;99.90;;;;;;2061096;28;20190;-67
2024/02/07 03:51:15;;;;;;;4.45;2.20;;;5.10;99.90;;;;;;2061252;28;20641;-67
2024/02/07 03:52:18;;;;;;;6.25;2.97;;;5.10;99.90;;;;;;2057948;28;20194;-68
2024/02/07 03:53:19;;;;;;;3.33;1.70;;;5.10;99.90;;;;;;2061505;28;20253;-67
2024/02/07 03:54:20;;;;;;;4.20;2.47;;;5.10;99.90;;;;;;2052834;28;20179;-68
2024/02/07 03:55:21;;;;;;;5.13;2.83;;;5.10;99.90;;;;;;2059325;28;20223;-68
2024/02/07 03:56:22;;;;;;;6.47;1.90;;;5.10;99.90;;;;;;2059340;28;20325;-67
2024/02/07 03:57:22;;;;;;;4.23;2.00;;;5.10;99.90;;;;;;2058881;28;20233;-68
2024/02/07 03:58:25;;;;;;;3.77;1.87;;;5.10;99.90;;;;;;2058029;28;20233;-68
2024/02/07 03:59:25;;;;;;;4.80;1.85;;;5.10;99.90;;;;;;2058880;28;20709;-67
2024/02/07 04:00:26;;;;;;;5.23;2.30;;;5.10;99.90;;;;;;2051879;28;20322;-67
2024/02/07 04:01:27;;;;;;;3.07;2.17;;;5.10;99.90;;;;;;2060218;28;20234;-67
2024/02/07 04:02:28;;;;;;;5.83;2.40;;;5.20;99.90;;;;;;2057479;28;20234;-68
2024/02/07 04:03:28;;;;;;;3.90;1.93;;;5.20;99.90;;;;;;2058598;28;20242;-68
2024/02/07 04:04:29;;;;;;;3.37;2.37;;;5.20;99.90;;;;;;2055539;28;20226;-67
2024/02/07 04:05:30;;;;;;;3.93;2.40;;;5.10;99.90;;;;;;2060841;28;20226;-67
2024/02/07 04:06:31;;;;;;;6.43;2.20;;;5.20;99.90;;;;;;2057162;28;20295;-67
2024/02/07 04:07:32;;;;;;;5.47;2.10;;;5.20;99.90;;;;;;2057627;28;20229;-68
2024/02/07 04:08:34;;;;;;;3.55;2.30;;;5.20;99.90;;;;;;2056444;28;21036;-68
2024/02/07 04:09:36;;;;;;;7.45;2.88;;;5.20;99.90;;;;;;2051457;28;20266;-68
2024/02/07 04:10:41;;;;;;;4.68;2.22;;;5.10;99.90;;;;;;2056604;28;20250;-68
2024/02/07 05:16:23;;;;;;;3.03;2.13;;;5.50;99.90;;;;;;2061763;28;20238;-67
2024/02/07 05:17:24;;;;;;;3.90;1.90;;;5.50;99.90;;;;;;2059427;28;20228;-67
2024/02/07 05:18:24;;;;;;;4.63;2.33;;;5.50;99.90;;;;;;2059227;28;20233;-68
2024/02/07 05:19:25;;;;;;;5.30;2.27;;;5.50;99.90;;;;;;2062105;28;20297;-67
2024/02/07 05:20:26;;;;;;;3.93;2.47;;;5.50;99.90;;;;;;2051037;28;20290;-68
2024/02/07 05:21:26;;;;;;;5.03;2.47;;;5.50;99.90;;;;;;2053906;28;20226;-68
2024/02/07 05:22:27;;;;;;;4.47;2.47;;;5.50;99.90;;;;;;2053628;28;20270;-67
2024/02/07 05:23:28;;;;;;;4.33;2.00;;;5.50;99.90;;;;;;2059612;28;20604;-68
2024/02/07 05:24:29;;;;;;;5.47;2.60;;;5.50;99.90;;;;;;2055995;28;20233;-67
2024/02/07 05:25:32;;;;;;;5.00;2.10;;;5.50;99.90;;;;;;2050539;28;20227;-68
2024/02/07 05:26:35;;;;;;;3.40;2.38;;;5.50;99.90;;;;;;2055275;28;20328;-67
2024/02/07 05:27:35;;;;;;;3.53;2.10;;;5.60;99.90;;;;;;2069420;28;20260;-67
2024/02/07 05:28:36;;;;;;;5.73;2.70;;;5.50;99.90;;;;;;2050964;28;20285;-67
2024/02/07 05:29:37;;;;;;;3.05;2.00;;;5.60;99.90;;;;;;2051100;28;20782;-68
2024/02/07 05:30:39;;;;;;;2.87;2.07;;;5.60;99.90;;;;;;2054612;28;20238;-68
2024/02/07 05:31:40;;;;;;;6.97;2.22;;;5.70;99.90;;;;;;2053116;28;20727;-68
2024/02/07 05:32:41;;;;;;;5.30;2.87;;;5.70;99.90;;;;;;2059059;28;20226;-68
2024/02/07 05:33:42;;;;;;;6.00;2.80;;;5.80;99.90;;;;;;2057425;28;20706;-67
2024/02/07 05:34:43;;;;;;;4.30;3.10;;;5.70;99.90;;;;;;2057098;28;20284;-67
2024/02/07 05:35:43;;;;;;;3.40;2.17;;;5.70;99.90;;;;;;2058145;28;20310;-68
2024/02/07 05:36:44;;;;;;;2.40;1.97;;;5.70;99.90;;;;;;2060568;28;20324;-68
2024/02/07 05:37:45;;;;;;;4.83;1.83;;;5.60;99.90;;;;;;2060130;28;20337;-68
2024/02/07 05:38:46;;;;;;;3.03;1.93;;;5.60;99.90;;;;;;2054818;28;20254;-68
2024/02/07 05:39:47;;;;;;;4.38;2.20;;;5.60;99.90;;;;;;2057750;28;20238;-67
2024/02/07 05:40:48;;;;;;;5.10;2.30;;;5.60;99.90;;;;;;2059945;28;20245;-68
2024/02/07 05:41:49;;;;;;;6.67;3.07;;;5.60;99.90;;;;;;2054587;28;20616;-68
2024/02/07 05:42:49;;;;;;;5.20;3.30;;;5.60;99.90;;;;;;2045178;28;20237;-68
2024/02/07 05:43:53;;;;;;;2.93;2.07;;;5.60;99.90;;;;;;2061236;28;20471;-69
2024/02/07 05:44:54;;;;;;;10.18;3.83;;;5.70;99.90;;;;;;2056510;28;20222;-69
2024/02/07 05:45:58;;;;;;;3.70;2.47;;;5.60;99.90;;;;;;2051682;28;20231;-68
2024/02/07 05:47:01;;;;;;;3.88;2.40;;;5.60;99.90;;;;;;2050508;28;20223;-69
2024/02/07 05:48:01;;;;;;;5.00;2.55;;;5.60;99.90;;;;;;2051487;28;20225;-68
2024/02/07 05:49:02;;;;;;;8.67;2.80;;;5.60;99.90;;;;;;2062106;28;20216;-69
2024/02/07 05:50:03;;;;;;;3.00;2.10;;;5.60;99.90;;;;;;2060028;28;20274;-68
2024/02/07 05:51:04;;;;;;;7.93;2.80;;;5.60;99.90;;;;;;2059569;28;20187;-68
2024/02/07 05:52:05;;;;;;;3.57;2.27;;;5.50;99.90;;;;;;2059953;28;20218;-67
2024/02/07 05:53:06;;;;;;;4.93;2.60;;;5.50;99.90;;;;;;2060863;28;20286;-68
2024/02/07 05:54:07;;;;;;;5.10;2.63;;;5.50;99.90;;;;;;2062151;28;20498;-69
2024/02/07 05:55:09;;;;;;;9.18;3.22;;;5.50;99.90;;;;;;2061772;28;20746;-68
2024/02/07 05:56:10;;;;;;;3.50;2.35;;;5.50;99.90;;;;;;2061136;28;20217;-68
2024/02/07 05:57:11;;;;;;;3.40;2.20;;;5.50;99.90;;;;;;2056099;28;20919;-68
2024/02/07 05:58:11;;;;;;;4.27;2.30;;;5.50;99.90;;;;;;2059152;28;20214;-68
2024/02/07 05:59:12;;;;;;;10.07;2.73;;;5.50;99.90;;;;;;2060978;28;20179;-68
2024/02/07 06:00:14;;;;;;;5.83;2.47;;;5.50;99.90;;;;;;2058626;28;20242;-68
2024/02/07 06:01:15;;;;;;;3.28;2.20;;;5.50;99.90;;;;;;2053018;28;20648;-68
2024/02/07 06:02:17;;;;;;;6.97;3.03;;;5.50;99.90;;;;;;2045547;28;20261;-68
2024/02/07 06:03:17;;;;;;;4.28;2.45;;;5.50;99.90;;;;;;2060105;28;20190;-68
2024/02/07 06:04:19;;;;;;;4.87;2.40;;;5.50;99.90;;;;;;2060546;28;20606;-68
2024/02/07 06:05:21;;;;;;;5.35;2.50;;;5.50;99.90;;;;;;2061183;28;20197;-68
2024/02/07 06:06:24;;;;;;;4.22;2.38;;;5.50;99.90;;;;;;2054946;28;20234;-69
2024/02/07 06:07:24;;;;;;;4.38;2.60;;;5.60;99.90;;;;;;2051872;28;20731;-69
2024/02/07 06:08:25;;;;;;;8.80;2.53;;;5.60;99.90;;;;;;2053281;28;20227;-69
2024/02/07 06:09:26;;;;;;;5.70;2.37;;;5.70;99.90;;;;;;2057490;28;20234;-69
2024/02/07 06:10:27;;;;;;;3.23;2.57;;;5.70;99.90;;;;;;2060834;28;20591;-69
2024/02/07 06:11:32;;;;;;;4.67;2.63;;;5.70;99.90;;;;;;2059510;28;20230;-68
2024/02/07 06:12:33;;;;;;;6.00;2.95;;;5.60;99.90;;;;;;2062181;28;20256;-69
2024/02/07 06:13:38;;;;;;;11.25;2.67;;;5.60;99.90;;;;;;2058626;28;20222;-69
2024/02/07 06:14:39;;;;;;;7.18;3.40;;;5.60;99.90;;;;;;2057396;28;20231;-68
2024/02/07 06:15:40;;;;;;;5.47;2.90;;;5.60;99.90;;;;;;2045386;28;20230;-68
2024/02/07 06:16:41;;;;;;;4.80;3.13;;;5.60;99.90;;;;;;2052770;28;20753;-69
2024/02/07 06:17:41;;;;;;;9.63;2.90;;;5.70;99.90;;;;;;2059298;28;20297;-69
2024/02/07 06:18:42;;;;;;;5.00;2.37;;;5.70;99.90;;;;;;2059653;28;20228;-68
2024/02/07 06:19:43;;;;;;;4.47;2.63;;;5.70;99.90;;;;;;2059049;28;20369;-69
2024/02/07 06:20:43;;;;;;;4.13;2.53;;;5.70;99.90;;;;;;2058687;28;20313;-69
2024/02/07 06:21:44;;;;;;;5.43;2.97;;;5.80;99.90;;;;;;2057999;28;20226;-69
2024/02/07 06:22:47;;;;;;;4.87;2.67;;;5.80;99.90;;;;;;2055928;28;20333;-69
2024/02/07 06:23:48;;;;;;;5.07;2.88;;;5.70;99.90;;;;;;2058738;28;20221;-68
2024/02/07 06:24:48;;;;;;;3.83;2.00;;;5.80;99.90;;;;;;2060146;28;20233;-68
2024/02/07 06:25:49;;;;;;;5.47;2.97;;;5.80;99.90;;;;;;2059302;28;20269;-69
2024/02/07 06:26:50;;;;;;;7.10;3.23;;;5.80;99.90;;;;;;2058453;28;20229;-69
2024/02/07 06:27:50;;;;;;;8.83;3.30;;;5.80;99.90;;;;;;2057734;28;20702;-69
2024/02/07 06:28:51;;;;;;;4.60;3.00;;;5.80;99.90;;;;;;2058937;28;20822;-69
2024/02/07 06:29:52;;;;;;;5.67;2.37;;;5.80;99.90;;;;;;2053461;28;20329;-68
2024/02/07 06:30:52;;;;;;;8.97;2.93;;;5.80;99.90;;;;;;2042550;28;20733;-68
2024/02/07 06:31:54;;;;;;;6.90;2.97;;;5.80;99.90;;;;;;2060143;28;20660;-68
2024/02/07 06:32:54;;;;;;;6.15;2.58;;;5.80;99.90;;;;;;2056851;28;20257;-69